createdAt,value
2022-08-26T00:02:01.533Z,72.78
2022-08-26T00:04:31.506Z,72.67
2022-08-26T00:07:00.360Z,72.79
2022-08-26T00:09:29.117Z,73.00
2022-08-26T00:11:57.578Z,72.87
2022-08-26T00:14:31.033Z,73.08
2022-08-26T00:17:00.194Z,73.43
2022-08-26T00:19:28.804Z,73.80
2022-08-26T00:21:57.383Z,73.66
2022-08-26T00:24:25.993Z,73.85
2022-08-26T00:26:54.445Z,73.83
2022-08-26T00:29:23.059Z,73.85
2022-08-26T00:31:51.837Z,74.76
2022-08-26T00:34:20.516Z,74.60
2022-08-26T00:36:52.053Z,74.57
2022-08-26T00:39:21.187Z,74.65
2022-08-26T00:41:49.969Z,74.73
2022-08-26T00:44:19.297Z,74.71
2022-08-26T00:46:52.872Z,74.55
2022-08-26T00:49:31.009Z,74.76
2022-08-26T00:52:03.889Z,74.99
2022-08-26T00:54:44.645Z,75.09
2022-08-26T00:57:16.760Z,74.96
2022-08-26T00:59:47.664Z,75.55
2022-08-26T01:02:20.967Z,75.45
2022-08-26T01:04:55.639Z,75.56
2022-08-26T01:07:26.179Z,75.82
2022-08-26T01:09:57.546Z,75.81
2022-08-26T01:12:31.778Z,75.68
2022-08-26T01:15:01.580Z,75.72
2022-08-26T01:17:30.259Z,75.84
2022-08-26T01:20:09.969Z,75.81
2022-08-26T01:22:49.817Z,75.92
2022-08-26T01:25:23.472Z,76.08
2022-08-26T01:27:55.041Z,76.36
2022-08-26T01:30:27.763Z,76.81
2022-08-26T01:32:58.075Z,77.62
2022-08-26T01:35:27.545Z,77.53
2022-08-26T01:37:56.837Z,77.59
2022-08-26T01:40:32.101Z,77.71
2022-08-26T01:43:02.857Z,77.84
2022-08-26T01:45:34.273Z,77.83
2022-08-26T01:48:11.030Z,78.01
2022-08-26T01:50:40.119Z,77.52
2022-08-26T01:53:12.081Z,77.51
2022-08-26T01:55:45.748Z,77.56
2022-08-26T01:58:20.517Z,77.49
2022-08-26T02:00:50.423Z,77.55
2022-08-26T02:03:21.792Z,77.22
2022-08-26T02:05:53.908Z,77.71
2022-08-26T02:08:27.853Z,77.52
2022-08-26T02:10:56.610Z,77.59
2022-08-26T02:13:30.767Z,77.89
2022-08-26T02:16:01.598Z,78.09
2022-08-26T02:18:34.493Z,77.88
2022-08-26T02:21:06.615Z,77.97
2022-08-26T02:23:35.572Z,78.81
2022-08-26T02:26:09.461Z,78.63
2022-08-26T02:28:40.288Z,77.38
2022-08-26T02:31:08.906Z,78.51
2022-08-26T02:33:38.581Z,79.10
2022-08-26T02:36:13.487Z,78.82
2022-08-26T02:38:44.465Z,78.91
2022-08-26T02:41:15.091Z,79.05
2022-08-26T02:43:43.881Z,79.32
2022-08-26T02:46:12.608Z,79.42
2022-08-26T02:48:50.633Z,79.77
2022-08-26T02:51:19.068Z,79.97
2022-08-26T02:53:47.532Z,79.75
2022-08-26T02:56:15.988Z,80.01
2022-08-26T02:58:44.568Z,80.35
2022-08-26T03:01:22.759Z,80.20
2022-08-26T03:03:51.713Z,80.14
2022-08-26T03:06:20.810Z,80.62
2022-08-26T03:08:49.565Z,80.79
2022-08-26T03:11:19.095Z,80.72
2022-08-26T03:13:47.686Z,80.75
2022-08-26T03:16:16.902Z,80.82
2022-08-26T03:18:47.015Z,80.88
2022-08-26T03:21:21.148Z,81.05
2022-08-26T03:23:49.709Z,81.31
2022-08-26T03:26:18.905Z,81.57
2022-08-26T03:29:05.943Z,81.32
2022-08-26T03:31:35.532Z,81.56
2022-08-26T03:34:04.105Z,81.40
2022-08-26T03:36:33.164Z,81.43
2022-08-26T03:39:04.413Z,81.59
2022-08-26T03:41:36.075Z,81.57
2022-08-26T03:44:06.366Z,81.58
2022-08-26T03:46:35.464Z,81.79
2022-08-26T03:49:05.445Z,82.31
2022-08-26T03:51:35.844Z,82.19
2022-08-26T03:54:09.131Z,81.96
2022-08-26T03:56:37.964Z,81.81
2022-08-26T03:59:08.555Z,82.01
2022-08-26T04:01:37.305Z,81.88
2022-08-26T04:04:06.955Z,81.84
2022-08-26T04:06:38.305Z,82.22
2022-08-26T04:09:09.385Z,82.22
2022-08-26T04:11:39.682Z,82.26
2022-08-26T04:14:12.893Z,82.30
2022-08-26T04:16:43.284Z,82.28
2022-08-26T04:19:13.852Z,82.40
2022-08-26T04:21:43.148Z,82.53
2022-08-26T04:24:14.612Z,82.71
2022-08-26T04:26:43.993Z,82.70
2022-08-26T04:29:16.724Z,82.61
2022-08-26T04:31:46.416Z,82.52
2022-08-26T04:34:16.998Z,82.73
2022-08-26T04:36:45.706Z,82.73
2022-08-26T04:39:16.355Z,82.54
2022-08-26T04:41:46.114Z,82.80
2022-08-26T04:44:15.930Z,82.47
2022-08-26T04:46:46.051Z,82.58
2022-08-26T04:49:14.542Z,82.60
2022-08-26T04:51:43.920Z,82.33
2022-08-26T04:54:13.644Z,83.16
2022-08-26T04:56:49.105Z,82.78
2022-08-26T04:59:18.206Z,82.50
2022-08-26T05:01:49.463Z,82.67
2022-08-26T05:04:20.157Z,82.71
2022-08-26T05:06:49.426Z,82.57
2022-08-26T05:09:18.681Z,82.87
2022-08-26T05:11:48.520Z,83.21
2022-08-26T05:14:22.768Z,82.94
2022-08-26T05:16:52.018Z,82.50
2022-08-26T05:19:21.087Z,82.43
2022-08-26T05:21:50.215Z,82.58
2022-08-26T05:24:18.809Z,81.14
2022-08-26T05:26:48.127Z,76.80
2022-08-26T05:29:16.937Z,70.87
2022-08-26T05:31:45.490Z,67.38
2022-08-26T05:34:14.221Z,64.46
2022-08-26T05:36:43.014Z,62.64
2022-08-26T05:39:12.022Z,62.39
2022-08-26T05:41:44.860Z,61.12
2022-08-26T05:44:15.733Z,63.02
2022-08-26T05:46:45.644Z,60.53
2022-08-26T05:49:15.387Z,60.72
2022-08-26T05:51:46.024Z,59.44
2022-08-26T05:54:21.993Z,61.28
2022-08-26T05:56:51.790Z,60.79
2022-08-26T05:59:24.192Z,60.63
2022-08-26T06:01:54.417Z,60.19
2022-08-26T06:04:27.076Z,61.83
2022-08-26T06:06:58.543Z,62.10
2022-08-26T06:09:27.159Z,63.05
2022-08-26T06:11:58.272Z,61.54
2022-08-26T06:14:26.734Z,61.30
2022-08-26T06:16:55.190Z,61.40
2022-08-26T06:19:23.836Z,62.23
2022-08-26T06:21:54.926Z,61.86
2022-08-26T06:24:50.985Z,58.64
2022-08-26T06:27:19.946Z,58.64
2022-08-26T06:29:48.712Z,59.59
2022-08-26T06:32:17.272Z,59.66
2022-08-26T06:34:45.767Z,60.13
2022-08-26T06:37:14.655Z,58.35
2022-08-26T06:39:44.140Z,57.72
2022-08-26T06:42:12.945Z,56.10
2022-08-26T06:44:44.739Z,55.41
2022-08-26T06:47:13.582Z,55.41
2022-08-26T06:49:42.429Z,56.22
2022-08-26T06:52:12.753Z,55.30
2022-08-26T06:54:42.674Z,54.53
2022-08-26T06:57:12.713Z,54.07
2022-08-26T06:59:45.739Z,54.27
2022-08-26T07:02:14.610Z,54.83
2022-08-26T07:04:43.866Z,53.07
2022-08-26T07:07:16.368Z,54.57
2022-08-26T07:09:45.399Z,54.25
2022-08-26T07:12:13.824Z,54.10
2022-08-26T07:14:47.557Z,52.80
2022-08-26T07:17:17.273Z,53.09
2022-08-26T07:19:49.022Z,53.71
2022-08-26T07:22:18.256Z,51.80
2022-08-26T07:24:46.718Z,51.47
2022-08-26T07:27:17.162Z,51.38
2022-08-26T07:29:45.868Z,49.38
2022-08-26T07:32:16.558Z,49.97
2022-08-26T07:34:45.626Z,52.39
2022-08-26T07:37:14.744Z,50.83
2022-08-26T07:39:44.630Z,53.02
2022-08-26T07:42:18.476Z,50.51
2022-08-26T07:44:47.636Z,50.10
2022-08-26T07:47:25.780Z,49.04
2022-08-26T07:49:57.229Z,49.74
2022-08-26T07:52:28.149Z,48.05
2022-08-26T07:54:58.302Z,48.04
2022-08-26T07:57:28.323Z,47.13
2022-08-26T07:59:57.719Z,46.53
2022-08-26T08:02:28.213Z,47.97
2022-08-26T08:04:57.774Z,46.24
2022-08-26T08:07:44.222Z,46.32
2022-08-26T08:10:16.894Z,46.76
2022-08-26T08:12:45.419Z,47.57
2022-08-26T08:15:15.337Z,45.52
2022-08-26T08:17:44.178Z,46.05
2022-08-26T08:20:14.433Z,45.84
2022-08-26T08:22:43.608Z,45.42
2022-08-26T08:25:13.339Z,45.11
2022-08-26T08:27:44.497Z,44.89
2022-08-26T08:30:15.521Z,44.44
2022-08-26T08:32:51.406Z,45.02
2022-08-26T08:35:22.239Z,44.09
2022-08-26T08:37:53.711Z,44.20
2022-08-26T08:40:25.669Z,43.60
2022-08-26T08:42:59.364Z,42.02
2022-08-26T08:45:36.566Z,41.90
2022-08-26T08:48:15.932Z,40.12
2022-08-26T08:50:48.823Z,37.47
2022-08-26T08:53:22.602Z,38.25
2022-08-26T08:56:04.263Z,35.57
2022-08-26T08:58:50.867Z,34.30
2022-08-26T09:01:29.942Z,32.94
2022-08-26T09:04:18.129Z,33.41
2022-08-26T09:06:49.601Z,32.84
2022-08-26T09:09:23.718Z,31.22
2022-08-26T09:11:52.868Z,33.33
2022-08-26T09:14:22.210Z,32.26
2022-08-26T09:17:00.629Z,30.82
2022-08-26T09:19:37.573Z,30.13
2022-08-26T09:22:09.407Z,31.80
2022-08-26T09:24:42.134Z,30.65
2022-08-26T09:27:37.771Z,31.86
2022-08-26T09:30:11.462Z,32.56
2022-08-26T09:32:41.647Z,32.12
2022-08-26T09:35:24.360Z,31.66
2022-08-26T09:37:52.999Z,32.69
2022-08-26T09:40:28.579Z,32.77
2022-08-26T09:43:09.921Z,33.33
2022-08-26T09:45:40.796Z,33.13
2022-08-26T09:48:29.722Z,32.00
2022-08-26T09:51:01.322Z,32.13
2022-08-26T09:53:31.901Z,33.26
2022-08-26T09:56:25.172Z,31.85
2022-08-26T09:58:54.637Z,32.31
2022-08-26T10:01:34.325Z,32.44
2022-08-26T10:04:09.970Z,33.70
2022-08-26T10:06:43.427Z,34.30
2022-08-26T10:09:17.185Z,32.56
2022-08-26T10:11:51.703Z,33.80
2022-08-26T10:14:26.239Z,34.79
2022-08-26T10:17:02.813Z,34.22
2022-08-26T10:19:55.917Z,35.23
2022-08-26T10:22:34.906Z,34.98
2022-08-26T10:25:09.844Z,35.60
2022-08-26T10:27:49.756Z,36.44
2022-08-26T10:30:22.260Z,37.50
2022-08-26T10:32:56.554Z,34.93
2022-08-26T10:35:26.588Z,34.69
2022-08-26T10:38:03.482Z,34.10
2022-08-26T10:40:45.361Z,34.11
2022-08-26T10:43:22.023Z,33.29
2022-08-26T10:45:53.142Z,32.91
2022-08-26T10:48:35.617Z,32.72
2022-08-26T10:51:05.824Z,34.12
2022-08-26T10:53:45.833Z,32.03
2022-08-26T10:56:27.995Z,31.01
2022-08-26T10:59:06.764Z,31.36
2022-08-26T11:01:51.056Z,33.05
2022-08-26T11:04:37.178Z,31.55
2022-08-26T11:07:31.765Z,30.45
2022-08-26T11:10:03.507Z,29.57
2022-08-26T11:12:56.347Z,31.42
2022-08-26T11:15:42.441Z,33.80
2022-08-26T11:18:12.788Z,30.05
2022-08-26T11:20:44.347Z,28.64
2022-08-26T11:23:50.424Z,29.53
2022-08-26T11:26:35.485Z,28.83
2022-08-26T11:29:13.508Z,30.43
2022-08-26T11:31:57.032Z,28.85
2022-08-26T11:34:54.822Z,29.29
2022-08-26T11:37:32.279Z,29.20
2022-08-26T11:40:04.283Z,29.43
2022-08-26T11:42:40.382Z,29.78
2022-08-26T11:45:22.541Z,28.00
2022-08-26T11:47:52.366Z,28.70
2022-08-26T11:50:25.518Z,28.14
2022-08-26T11:53:01.012Z,28.79
2022-08-26T11:55:30.858Z,28.08
2022-08-26T11:58:04.656Z,27.19
2022-08-26T12:00:37.972Z,27.21
2022-08-26T12:03:23.001Z,26.38
2022-08-26T12:05:54.002Z,26.92
2022-08-26T12:08:27.943Z,27.00
2022-08-26T12:11:06.442Z,28.06
2022-08-26T12:13:38.496Z,27.04
2022-08-26T12:16:08.513Z,27.75
2022-08-26T12:18:38.681Z,28.09
2022-08-26T12:21:15.991Z,29.19
2022-08-26T12:23:48.603Z,30.28
2022-08-26T12:26:26.752Z,30.81
2022-08-26T12:28:59.190Z,31.11
2022-08-26T12:31:31.490Z,30.61
2022-08-26T12:34:03.639Z,30.35
2022-08-26T12:36:36.823Z,30.42
2022-08-26T12:39:11.015Z,30.57
2022-08-26T12:41:49.900Z,30.13
2022-08-26T12:44:37.768Z,31.13
2022-08-26T12:47:17.016Z,28.94
2022-08-26T12:50:01.936Z,29.25
2022-08-26T12:52:32.697Z,29.56
2022-08-26T12:55:04.884Z,29.50
2022-08-26T12:57:35.824Z,29.42
2022-08-26T13:00:28.283Z,30.12
2022-08-26T13:02:58.259Z,29.38
2022-08-26T13:05:33.522Z,28.80
2022-08-26T13:08:24.307Z,28.40
2022-08-26T13:11:04.157Z,29.83
2022-08-26T13:13:33.296Z,29.19
2022-08-26T13:16:02.607Z,28.94
2022-08-26T13:18:31.236Z,28.58
2022-08-26T13:20:59.791Z,28.98
2022-08-26T13:23:28.819Z,29.22
2022-08-26T13:25:58.271Z,29.20
2022-08-26T13:28:26.977Z,29.26
2022-08-26T13:30:55.679Z,29.16
2022-08-26T13:33:24.190Z,27.80
2022-08-26T13:35:52.740Z,29.04
2022-08-26T13:38:29.015Z,28.63
2022-08-26T13:41:02.989Z,29.27
2022-08-26T13:43:32.039Z,29.33
2022-08-26T13:46:01.406Z,29.24
2022-08-26T13:48:31.099Z,29.28
2022-08-26T13:50:59.577Z,29.59
2022-08-26T13:53:29.916Z,31.35
2022-08-26T13:55:59.715Z,30.39
2022-08-26T13:58:29.161Z,29.63
2022-08-26T14:00:58.616Z,30.09
2022-08-26T14:03:27.531Z,31.71
2022-08-26T14:05:56.180Z,31.29
2022-08-26T14:08:24.765Z,30.73
2022-08-26T14:10:53.374Z,31.26
2022-08-26T14:13:22.203Z,30.76
2022-08-26T14:15:52.675Z,30.66
2022-08-26T14:18:25.737Z,32.08
2022-08-26T14:20:56.804Z,31.19
2022-08-26T14:23:25.709Z,31.87
2022-08-26T14:25:54.813Z,32.03
2022-08-26T14:28:23.427Z,31.23
2022-08-26T14:30:55.842Z,31.19
2022-08-26T14:33:28.186Z,31.52
2022-08-26T14:36:17.355Z,30.45
2022-08-26T14:38:47.050Z,30.35
2022-08-26T14:41:17.089Z,30.12
2022-08-26T14:43:49.056Z,30.80
2022-08-26T14:46:18.301Z,30.67
2022-08-26T14:48:46.991Z,30.91
2022-08-26T14:51:15.562Z,31.27
2022-08-26T14:54:02.908Z,31.87
2022-08-26T14:56:33.005Z,31.93
2022-08-26T14:59:01.600Z,30.82
2022-08-26T15:01:31.670Z,31.17
2022-08-26T15:04:00.915Z,31.06
2022-08-26T15:06:31.369Z,30.65
2022-08-26T15:09:00.079Z,31.79
2022-08-26T15:11:28.963Z,30.87
2022-08-26T15:13:57.572Z,30.63
2022-08-26T15:16:28.576Z,30.95
2022-08-26T15:18:57.809Z,31.38
2022-08-26T15:21:28.040Z,31.37
2022-08-26T15:24:00.454Z,31.49
2022-08-26T15:26:30.628Z,31.76
2022-08-26T15:29:03.085Z,31.99
2022-08-26T15:31:35.573Z,32.11
2022-08-26T15:34:07.686Z,32.56
2022-08-26T15:36:37.382Z,32.92
2022-08-26T15:39:07.674Z,32.82
2022-08-26T15:41:36.969Z,32.79
2022-08-26T15:44:07.159Z,32.67
2022-08-26T15:46:36.526Z,32.47
2022-08-26T15:49:08.059Z,32.35
2022-08-26T15:51:46.270Z,32.44
2022-08-26T15:54:17.153Z,32.85
2022-08-26T15:56:48.625Z,32.90
2022-08-26T15:59:18.722Z,33.49
2022-08-26T16:01:47.829Z,33.44
2022-08-26T16:04:17.122Z,32.61
2022-08-26T16:06:49.595Z,32.64
2022-08-26T16:09:18.383Z,33.04
2022-08-26T16:11:48.214Z,32.80
2022-08-26T16:14:16.837Z,32.93
2022-08-26T16:16:46.545Z,33.00
2022-08-26T16:19:15.283Z,33.61
2022-08-26T16:21:44.487Z,34.08
2022-08-26T16:24:13.515Z,35.24
2022-08-26T16:26:44.846Z,34.33
2022-08-26T16:29:15.145Z,34.74
2022-08-26T16:31:43.869Z,35.22
2022-08-26T16:34:12.514Z,36.03
2022-08-26T16:36:41.485Z,36.92
2022-08-26T16:39:10.450Z,36.92
2022-08-26T16:41:39.147Z,36.75
2022-08-26T16:44:08.199Z,36.80
2022-08-26T16:46:39.249Z,36.16
2022-08-26T16:49:07.957Z,36.35
2022-08-26T16:51:38.025Z,36.33
2022-08-26T16:54:08.216Z,37.18
2022-08-26T16:56:37.533Z,38.19
2022-08-26T16:59:10.146Z,40.62
2022-08-26T17:01:38.833Z,40.30
2022-08-26T17:04:07.792Z,39.57
2022-08-26T17:06:37.435Z,39.62
2022-08-26T17:09:06.067Z,38.45
2022-08-26T17:11:35.167Z,39.96
2022-08-26T17:14:03.850Z,38.81
2022-08-26T17:16:32.983Z,40.10
2022-08-26T17:19:02.270Z,39.99
2022-08-26T17:21:33.406Z,41.24
2022-08-26T17:24:02.707Z,41.65
2022-08-26T17:26:31.472Z,38.93
2022-08-26T17:29:00.154Z,40.49
2022-08-26T17:31:28.775Z,40.42
2022-08-26T17:33:57.378Z,41.36
2022-08-26T17:36:28.139Z,41.49
2022-08-26T17:38:58.267Z,42.69
2022-08-26T17:41:27.606Z,41.66
2022-08-26T17:43:56.898Z,41.68
2022-08-26T17:46:25.890Z,41.77
2022-08-26T17:48:54.623Z,41.24
2022-08-26T17:51:24.131Z,42.95
2022-08-26T17:53:53.127Z,42.69
2022-08-26T17:56:25.097Z,44.29
2022-08-26T17:58:57.196Z,43.73
2022-08-26T18:01:31.327Z,44.46
2022-08-26T18:04:01.028Z,45.05
2022-08-26T18:06:30.381Z,45.80
2022-08-26T18:08:59.601Z,46.48
2022-08-26T18:11:29.065Z,46.54
2022-08-26T18:13:57.667Z,47.13
2022-08-26T18:16:27.531Z,47.79
2022-08-26T18:18:56.064Z,47.29
2022-08-26T18:21:27.005Z,47.94
2022-08-26T18:23:56.346Z,48.28
2022-08-26T18:26:28.060Z,48.97
2022-08-26T18:28:57.057Z,49.70
2022-08-26T18:31:26.562Z,50.07
2022-08-26T18:33:55.287Z,50.85
2022-08-26T18:36:25.907Z,51.29
2022-08-26T18:38:55.288Z,51.59
2022-08-26T18:41:27.206Z,51.63
2022-08-26T18:43:56.864Z,51.90
2022-08-26T18:46:27.493Z,51.80
2022-08-26T18:48:57.047Z,52.11
2022-08-26T18:51:29.209Z,52.12
2022-08-26T18:53:59.089Z,52.52
2022-08-26T18:56:28.596Z,52.96
2022-08-26T18:58:58.454Z,53.35
2022-08-26T19:01:28.789Z,53.42
2022-08-26T19:03:59.521Z,54.18
2022-08-26T19:06:32.525Z,54.44
2022-08-26T19:09:02.181Z,54.69
2022-08-26T19:11:31.529Z,54.81
2022-08-26T19:14:01.811Z,55.05
2022-08-26T19:16:31.050Z,55.32
2022-08-26T19:19:00.804Z,55.59
2022-08-26T19:21:32.668Z,55.84
2022-08-26T19:24:04.231Z,56.45
2022-08-26T19:26:33.010Z,57.19
2022-08-26T19:29:02.064Z,57.30
2022-08-26T19:31:30.820Z,57.73
2022-08-26T19:33:59.633Z,57.78
2022-08-26T19:36:28.670Z,58.10
2022-08-26T19:38:57.813Z,58.44
2022-08-26T19:41:36.998Z,58.86
2022-08-26T19:44:12.601Z,58.84
2022-08-26T19:46:41.806Z,59.38
2022-08-26T19:49:10.323Z,59.35
2022-08-26T19:51:38.748Z,59.57
2022-08-26T19:54:07.368Z,59.69
2022-08-26T19:56:36.131Z,60.57
2022-08-26T19:59:05.204Z,60.02
2022-08-26T20:01:33.788Z,59.88
2022-08-26T20:04:02.447Z,60.21
2022-08-26T20:06:33.379Z,59.10
2022-08-26T20:09:01.844Z,59.44
2022-08-26T20:11:30.605Z,60.18
2022-08-26T20:13:59.189Z,59.69
2022-08-26T20:16:27.706Z,60.20
2022-08-26T20:19:14.662Z,60.74
2022-08-26T20:21:43.641Z,60.87
2022-08-26T20:24:16.983Z,61.15
2022-08-26T20:26:46.733Z,61.24
2022-08-26T20:29:17.275Z,61.74
2022-08-26T20:31:46.859Z,61.73
2022-08-26T20:34:17.919Z,61.42
2022-08-26T20:36:49.036Z,61.93
2022-08-26T20:39:20.417Z,62.15
2022-08-26T20:41:50.146Z,62.14
2022-08-26T20:44:19.192Z,62.12
2022-08-26T20:46:48.282Z,62.76
2022-08-26T20:49:18.260Z,62.61
2022-08-26T20:51:51.205Z,62.51
2022-08-26T20:54:25.000Z,62.76
2022-08-26T20:56:58.093Z,62.78
2022-08-26T20:59:26.840Z,63.34
2022-08-26T21:01:55.700Z,63.40
2022-08-26T21:04:26.940Z,62.94
2022-08-26T21:06:55.867Z,63.42
2022-08-26T21:09:29.003Z,63.38
2022-08-26T21:11:59.513Z,63.46
2022-08-26T21:14:31.670Z,63.70
2022-08-26T21:17:00.785Z,63.91
2022-08-26T21:19:29.790Z,65.08
2022-08-26T21:21:58.838Z,64.85
2022-08-26T21:24:27.603Z,64.95
2022-08-26T21:26:56.338Z,64.95
2022-08-26T21:29:28.153Z,65.14
2022-08-26T21:31:57.298Z,64.43
2022-08-26T21:34:26.341Z,65.13
2022-08-26T21:36:55.180Z,65.00
2022-08-26T21:39:23.980Z,65.31
2022-08-26T21:41:52.709Z,65.75
2022-08-26T21:44:21.600Z,66.03
2022-08-26T21:46:50.419Z,66.08
2022-08-26T21:49:19.069Z,65.63
2022-08-26T21:54:56.967Z,65.87
2022-08-26T21:57:25.583Z,66.45
2022-08-26T21:59:54.730Z,66.21
2022-08-26T22:02:24.010Z,66.61
2022-08-26T22:04:52.601Z,65.69
2022-08-26T22:07:21.143Z,65.95
2022-08-26T22:09:50.903Z,65.79
2022-08-26T22:12:19.473Z,65.37
2022-08-26T22:14:48.852Z,65.18
2022-08-26T22:17:17.471Z,64.55
2022-08-26T22:19:46.806Z,64.85
2022-08-26T22:22:15.789Z,64.64
2022-08-26T22:24:44.819Z,64.58
2022-08-26T22:27:14.065Z,63.63
2022-08-26T22:29:42.951Z,63.66
2022-08-26T22:32:11.524Z,64.22
2022-08-26T22:34:41.627Z,63.63
2022-08-26T22:37:10.353Z,63.98
2022-08-26T22:39:39.202Z,64.21
2022-08-26T22:42:07.832Z,64.10
2022-08-26T22:44:36.981Z,64.10
2022-08-26T22:47:06.135Z,64.98
2022-08-26T22:49:34.627Z,63.96
2022-08-26T22:52:04.070Z,64.67
2022-08-26T22:54:32.547Z,64.58
2022-08-26T22:57:01.352Z,64.93
2022-08-26T22:59:29.867Z,65.38
2022-08-26T23:01:58.552Z,65.22
2022-08-26T23:04:27.052Z,65.60
2022-08-26T23:06:55.558Z,65.39
2022-08-26T23:09:24.051Z,65.52
2022-08-26T23:11:55.399Z,65.68
2022-08-26T23:14:24.700Z,64.87
2022-08-26T23:16:53.636Z,65.41
2022-08-26T23:19:23.102Z,65.95
2022-08-26T23:21:51.831Z,65.85
2022-08-26T23:24:20.587Z,65.57
2022-08-26T23:26:49.200Z,65.36
2022-08-26T23:29:17.891Z,65.61
2022-08-26T23:31:46.455Z,65.65
2022-08-26T23:34:33.852Z,65.75
2022-08-26T23:37:04.525Z,65.67
2022-08-26T23:39:36.484Z,65.84
2022-08-26T23:42:07.084Z,66.04
2022-08-26T23:44:35.768Z,66.27
2022-08-26T23:47:04.788Z,66.73
2022-08-26T23:49:34.702Z,66.73
2022-08-26T23:52:24.158Z,67.31
2022-08-26T23:54:52.707Z,67.18
2022-08-26T23:57:23.131Z,67.36
2022-08-26T23:59:52.674Z,67.75
